Time;durP1;ratioP1;P1;durP2;ratioP2;P2;SDS_P1;SDS_P2;PMS_P1;PMS_P2;Temp;Humidity;BMP_temperature;BMP_pressure;BME280_temperature;BME280_humidity;BME280_pressure;Samples;Min_cycle;Max_cycle;Signal;HPM_P1;HPM_P2
2021/06/01 00:00:09;;;;;;;;;6.00;6.00;;;;;20.19;42.03;101274.38;5097477;27;45466;-67
2021/06/01 00:02:35;;;;;;;;;5.00;5.00;;;;;20.16;42.30;101263.06;5088547;27;45456;-70
2021/06/01 00:05:00;;;;;;;;;7.00;7.00;;;;;20.08;41.66;101257.22;5085511;27;45402;-66
2021/06/01 00:07:25;;;;;;;;;7.75;5.75;;;;;20.12;41.80;101272.91;5091738;27;45713;-67
2021/06/01 00:09:51;;;;;;;;;8.00;7.00;;;;;20.13;42.18;101276.44;5091160;27;45658;-67
2021/06/01 00:12:16;;;;;;;;;5.50;5.50;;;;;20.01;42.17;101259.31;5088510;27;47001;-67
2021/06/01 00:14:42;;;;;;;;;7.00;7.00;;;;;20.02;41.71;101265.47;5090992;27;45269;-66
2021/06/01 00:17:07;;;;;;;;;7.25;6.00;;;;;20.02;42.03;101271.63;5086812;27;45518;-67
2021/06/01 00:19:33;;;;;;;;;7.00;7.00;;;;;20.00;41.60;101262.88;5090834;27;45431;-67
2021/06/01 00:21:59;;;;;;;;;5.50;5.50;;;;;19.97;42.37;101262.16;5096563;27;46000;-67
2021/06/01 00:24:24;;;;;;;;;6.75;6.00;;;;;19.91;42.45;101262.41;5097153;27;45338;-67
2021/06/01 00:26:49;;;;;;;;;8.75;7.25;;;;;19.90;42.44;101258.91;5091080;27;45442;-67
2021/06/01 00:29:15;;;;;;;;;4.75;4.75;;;;;19.85;42.47;101256.47;5100110;27;45536;-67
2021/06/01 00:31:42;;;;;;;;;7.75;7.00;;;;;19.86;42.48;101259.97;5082521;27;45483;-67
2021/06/01 00:34:08;;;;;;;;;7.75;7.00;;;;;19.83;42.02;101258.31;5091628;27;45363;-67
2021/06/01 00:36:33;;;;;;;;;5.75;5.25;;;;;19.67;41.83;101241.38;5087930;27;45819;-67
2021/06/01 00:38:59;;;;;;;;;6.00;5.00;;;;;19.71;42.44;101247.44;5079368;27;45394;-67
2021/06/01 00:41:24;;;;;;;;;7.00;6.00;;;;;19.69;42.52;101258.09;5082397;27;46604;-67
2021/06/01 00:43:50;;;;;;;;;7.00;6.00;;;;;19.57;41.93;101233.00;5090877;27;45773;-66
2021/06/01 00:46:15;;;;;;;;;7.00;6.25;;;;;19.64;42.54;101246.81;5081137;27;45396;-67
2021/06/01 00:48:41;;;;;;;;;7.75;7.00;;;;;19.63;42.67;101252.19;5092172;27;45412;-68
2021/06/01 00:51:06;;;;;;;;;9.75;7.50;;;;;19.51;41.92;101243.81;5081199;27;45511;-66
2021/06/01 00:53:32;;;;;;;;;9.00;7.50;;;;;19.49;42.32;101235.09;5093502;27;45350;-68
2021/06/01 00:55:59;;;;;;;;;8.75;7.50;;;;;19.50;42.43;101243.91;5076608;27;45362;-72
2021/06/01 00:58:25;;;;;;;;;8.00;7.00;;;;;19.50;42.36;101236.81;5094161;27;45886;-69
2021/06/01 01:03:26;;;;;;;;;8.50;8.00;;;;;19.48;42.56;101249.25;5085107;27;45383;-67
2021/06/01 01:05:52;;;;;;;;;8.00;6.75;;;;;19.43;42.53;101245.06;5077459;27;45427;-67
2021/06/01 01:11:19;;;;;;;;;10.25;8.50;;;;;19.39;43.12;101249.63;5076149;27;46591;-71
2021/06/01 01:13:57;;;;;;;;;5.50;5.00;;;;;19.31;43.38;101241.16;5086561;27;45792;-67
2021/06/01 01:16:26;;;;;;;;;6.50;6.00;;;;;19.25;42.97;101237.00;5084931;27;45447;-71
2021/06/01 01:19:07;;;;;;;;;6.75;6.50;;;;;19.28;43.30;101244.81;5084769;27;45288;-67
2021/06/01 01:21:51;;;;;;;;;8.50;8.00;;;;;19.24;42.73;101245.88;5088644;27;47022;-66
2021/06/01 01:24:17;;;;;;;;;7.00;6.25;;;;;19.22;42.96;101245.03;5088452;27;45486;-68
2021/06/01 01:26:51;;;;;;;;;8.00;7.00;;;;;19.20;42.55;101246.03;5081052;27;45475;-67
2021/06/01 01:29:44;;;;;;;;;6.00;6.00;;;;;19.17;42.19;101241.72;5088193;27;45381;-66
2021/06/01 01:32:31;;;;;;;;;7.00;7.00;;;;;19.16;42.40;101242.66;5089673;27;45593;-66
2021/06/01 01:34:59;;;;;;;;;9.00;7.50;;;;;19.14;42.68;101238.34;5079936;27;45708;-68
2021/06/01 01:37:27;;;;;;;;;6.25;6.00;;;;;19.07;42.37;101221.88;5078721;27;45563;-67
2021/06/01 01:39:58;;;;;;;;;7.00;6.00;;;;;19.09;42.38;101230.63;5095064;27;45510;-67
2021/06/01 01:42:25;;;;;;;;;6.00;6.00;;;;;19.08;42.59;101230.69;5085229;27;45522;-67
2021/06/01 01:44:53;;;;;;;;;6.25;6.25;;;;;18.96;42.42;101208.22;5087191;27;45317;-67
2021/06/01 01:50:03;;;;;;;;;7.00;6.00;;;;;19.03;42.34;101227.38;5091809;27;45373;-67
2021/06/01 01:52:29;;;;;;;;;6.75;6.25;;;;;19.05;42.05;101226.38;5091170;27;47622;-70
2021/06/01 01:54:56;;;;;;;;;7.00;6.00;;;;;19.00;42.43;101227.47;5082865;27;45574;-67
2021/06/01 01:57:24;;;;;;;;;6.00;6.00;;;;;18.92;42.46;101211.91;5092640;27;45430;-67
2021/06/01 01:59:51;;;;;;;;;7.00;6.75;;;;;18.95;42.80;101215.28;5093183;27;45525;-67
2021/06/01 02:02:16;;;;;;;;;5.75;5.75;;;;;18.92;42.38;101217.22;5095552;27;45459;-67
2021/06/01 02:04:43;;;;;;;;;6.00;6.00;;;;;18.86;42.31;101205.09;5088010;27;45382;-67
2021/06/01 02:07:08;;;;;;;;;5.75;5.50;;;;;18.83;42.53;101205.25;5085265;27;45450;-67
2021/06/01 02:09:34;;;;;;;;;5.75;5.00;;;;;18.81;42.51;101204.44;5072341;28;45482;-67
2021/06/01 02:11:59;;;;;;;;;7.75;5.50;;;;;18.80;42.47;101204.50;5077441;27;47136;-68
2021/06/01 02:14:25;;;;;;;;;5.00;4.50;;;;;18.75;42.09;101207.31;5087606;27;45319;-68
2021/06/01 02:16:52;;;;;;;;;7.50;7.00;;;;;18.82;42.72;101210.59;5093023;27;45424;-65
2021/06/01 02:19:21;;;;;;;;;6.00;5.75;;;;;18.79;42.87;101216.00;5086726;27;45695;-65
2021/06/01 02:24:49;;;;;;;;;5.50;5.00;;;;;18.64;43.02;101196.31;5084397;27;45758;-68
2021/06/01 02:27:19;;;;;;;;;6.00;6.00;;;;;18.63;42.15;101203.41;5085019;27;45436;-66
2021/06/01 02:30:03;;;;;;;;;6.75;6.00;;;;;18.61;42.96;101207.84;5093243;27;45507;-66
2021/06/01 02:32:41;;;;;;;;;7.00;5.00;;;;;18.59;43.02;101206.19;5082283;27;46369;-66
2021/06/01 02:35:13;;;;;;;;;6.00;5.75;;;;;18.56;43.19;101208.97;5088697;27;45425;-66
2021/06/01 02:37:41;;;;;;;;;2.25;2.00;;;;;18.54;43.11;101211.66;5096502;27;45601;-66
2021/06/01 02:40:08;;;;;;;;;5.75;5.00;;;;;18.52;42.85;101208.19;5079418;27;45571;-66
2021/06/01 02:42:34;;;;;;;;;6.75;6.25;;;;;18.49;43.11;101197.75;5076317;27;47255;-66
2021/06/01 02:45:01;;;;;;;;;5.75;5.75;;;;;18.47;42.80;101206.66;5092883;27;45726;-66
2021/06/01 02:47:26;;;;;;;;;6.00;4.00;;;;;18.41;42.83;101199.84;5080000;27;45270;-66
2021/06/01 02:49:54;;;;;;;;;5.25;5.00;;;;;18.35;42.73;101192.16;5096256;27;45401;-66
2021/06/01 02:52:19;;;;;;;;;4.50;4.50;;;;;18.41;43.00;101205.13;5093524;27;46413;-66
2021/06/01 02:54:45;;;;;;;;;5.00;5.00;;;;;18.35;43.10;101193.03;5112161;27;46018;-66
2021/06/01 02:57:11;;;;;;;;;6.00;5.25;;;;;18.30;43.05;101194.09;5098837;27;45452;-66
2021/06/01 02:59:41;;;;;;;;;5.75;4.50;;;;;18.31;43.27;101195.81;5099965;27;45316;-66
2021/06/01 03:02:06;;;;;;;;;5.50;4.50;;;;;18.30;43.27;101197.59;5099622;27;46522;-66
2021/06/01 03:04:33;;;;;;;;;4.50;4.50;;;;;18.29;43.01;101195.03;5099215;27;45533;-66
2021/06/01 03:06:59;;;;;;;;;5.00;5.00;;;;;18.28;43.45;101196.81;5099171;27;45453;-67
2021/06/01 03:09:24;;;;;;;;;5.75;5.75;;;;;18.23;43.27;101192.63;5105744;27;45415;-66
2021/06/01 03:11:50;;;;;;;;;4.25;4.00;;;;;18.21;43.02;101186.53;5099035;27;45487;-66
2021/06/01 03:14:16;;;;;;;;;6.25;6.00;;;;;18.21;43.06;101191.81;5099608;27;45790;-66
2021/06/01 03:16:41;;;;;;;;;6.00;5.50;;;;;18.17;42.77;101180.53;5097908;27;45383;-66
2021/06/01 03:19:06;;;;;;;;;7.25;6.00;;;;;18.12;43.13;101174.56;5099708;27;45326;-68
2021/06/01 03:21:33;;;;;;;;;4.00;4.00;;;;;18.14;43.09;101190.34;5098862;27;47386;-66
2021/06/01 03:23:59;;;;;;;;;5.25;5.25;;;;;18.09;43.33;101179.94;5098786;27;45496;-67
2021/06/01 03:26:24;;;;;;;;;6.00;6.00;;;;;18.04;42.93;101172.19;5099414;27;45812;-67
2021/06/01 03:28:49;;;;;;;;;7.25;5.75;;;;;17.99;43.01;101170.66;5099507;27;45399;-66
2021/06/01 03:31:15;;;;;;;;;5.00;4.75;;;;;17.98;43.12;101169.78;5104031;27;47119;-66
2021/06/01 03:33:40;;;;;;;;;5.25;5.25;;;;;18.04;43.21;101184.53;5098809;27;45403;-66
2021/06/01 03:36:06;;;;;;;;;5.00;4.75;;;;;18.00;43.65;101172.38;5099081;27;45323;-67
2021/06/01 03:38:34;;;;;;;;;5.75;5.50;;;;;18.00;43.12;101167.09;5098904;27;45257;-67
2021/06/01 03:40:59;;;;;;;;;6.00;5.50;;;;;17.91;43.29;101163.03;5087451;27;45524;-67
2021/06/01 03:43:25;;;;;;;;;5.25;4.25;;;;;17.94;43.18;101160.25;5098804;27;45453;-66
2021/06/01 03:45:50;;;;;;;;;6.00;5.25;;;;;17.92;43.61;101155.97;5097598;27;45209;-66
2021/06/01 03:48:15;;;;;;;;;7.00;6.00;;;;;17.90;43.22;101152.53;5097929;27;45620;-66
2021/06/01 03:50:41;;;;;;;;;5.25;4.00;;;;;17.86;43.27;101150.88;5098423;27;47528;-66
2021/06/01 03:53:06;;;;;;;;;6.00;5.00;;;;;17.80;43.63;101146.69;5098231;27;45746;-69
2021/06/01 03:55:32;;;;;;;;;6.00;5.50;;;;;17.82;43.59;101152.78;5094308;27;45457;-66
2021/06/01 03:57:57;;;;;;;;;6.50;6.00;;;;;17.79;43.58;101149.41;5092495;27;45649;-67
2021/06/01 04:00:26;;;;;;;;;5.75;5.50;;;;;17.83;43.50;101165.06;5098474;27;45552;-66
2021/06/01 04:02:52;;;;;;;;;7.00;6.00;;;;;17.81;43.38;101161.63;5098206;27;45701;-67
2021/06/01 04:05:17;;;;;;;;;5.00;5.00;;;;;17.72;43.39;101161.97;5098541;27;45440;-66
2021/06/01 04:07:46;;;;;;;;;6.25;6.00;;;;;17.72;43.38;101168.13;5098713;27;45586;-70
2021/06/01 04:10:13;;;;;;;;;5.75;5.00;;;;;17.74;43.52;101170.72;5098142;27;46105;-66
2021/06/01 04:12:39;;;;;;;;;6.75;6.00;;;;;17.72;43.65;101167.28;5100321;27;45719;-68
2021/06/01 04:15:05;;;;;;;;;8.00;6.00;;;;;17.67;43.90;101163.91;5098225;27;45461;-67
2021/06/01 04:17:31;;;;;;;;;5.00;4.00;;;;;17.66;43.98;101155.13;5093683;27;45946;-67
2021/06/01 04:19:56;;;;;;;;;7.50;6.75;;;;;17.65;44.06;101155.16;5097503;27;45292;-66
2021/06/01 04:22:21;;;;;;;;;6.00;6.00;;;;;17.55;43.88;101132.66;5098370;27;45343;-67
2021/06/01 04:24:47;;;;;;;;;6.50;6.00;;;;;17.70;44.22;101158.53;5097651;27;45380;-66
2021/06/01 04:27:12;;;;;;;;;6.00;5.00;;;;;17.73;43.92;101158.44;5097840;27;45337;-67
2021/06/01 04:29:37;;;;;;;;;6.00;6.00;;;;;17.77;44.17;101165.31;5088044;27;45560;-66
2021/06/01 04:32:03;;;;;;;;;6.25;5.00;;;;;17.70;44.17;101145.34;5089942;27;45534;-69
2021/06/01 04:34:29;;;;;;;;;6.50;5.00;;;;;17.74;43.99;101153.09;5098225;27;45480;-66
2021/06/01 04:36:54;;;;;;;;;6.00;6.00;;;;;17.78;44.05;101150.31;5098116;27;45382;-66
2021/06/01 04:39:20;;;;;;;;;5.50;4.75;;;;;17.78;44.00;101153.81;5093487;27;46015;-67
2021/06/01 04:41:45;;;;;;;;;7.00;6.00;;;;;17.81;44.10;101153.72;5092295;27;45425;-66
2021/06/01 04:44:11;;;;;;;;;6.75;6.00;;;;;17.76;44.15;101147.75;5098367;27;45495;-67
2021/06/01 04:46:36;;;;;;;;;6.00;5.25;;;;;17.83;44.02;101151.88;5093180;27;45636;-67
2021/06/01 04:49:02;;;;;;;;;6.25;5.25;;;;;17.82;44.34;101152.78;5097496;27;46319;-65
2021/06/01 04:51:28;;;;;;;;;7.75;5.25;;;;;17.83;44.05;101148.38;5093323;27;45501;-66
2021/06/01 04:53:56;;;;;;;;;8.75;6.00;;;;;17.84;44.15;101152.72;5095457;27;45493;-66
2021/06/01 04:56:23;;;;;;;;;9.50;7.00;;;;;17.81;44.17;101144.91;5098010;27;45414;-68
2021/06/01 04:58:49;;;;;;;;;7.50;7.25;;;;;17.82;43.79;101139.56;5098023;27;47479;-65
2021/06/01 05:01:14;;;;;;;;;6.75;6.25;;;;;17.88;44.16;101149.94;5097904;27;45415;-67
2021/06/01 05:03:41;;;;;;;;;7.00;6.00;;;;;17.89;44.24;101150.78;5098104;27;45314;-66
2021/06/01 05:06:07;;;;;;;;;8.25;7.25;;;;;17.84;44.15;101139.50;5097984;27;45445;-66
2021/06/01 05:08:34;;;;;;;;;8.25;6.50;;;;;17.94;44.57;101146.19;5096428;27;45513;-65
2021/06/01 05:11:00;;;;;;;;;7.75;7.75;;;;;17.91;44.10;101138.38;5098125;27;45568;-67
2021/06/01 05:13:25;;;;;;;;;8.25;7.75;;;;;17.89;44.23;101129.66;5097846;27;45402;-65
2021/06/01 05:15:52;;;;;;;;;7.00;6.25;;;;;17.95;43.79;101138.22;5098053;27;45328;-65
2021/06/01 05:18:19;;;;;;;;;9.00;7.50;;;;;17.91;43.92;101136.59;5097645;27;45354;-65
2021/06/01 05:20:45;;;;;;;;;8.00;7.00;;;;;17.98;44.13;101143.38;5097894;27;45372;-65
2021/06/01 05:23:11;;;;;;;;;7.50;6.50;;;;;17.97;43.86;101132.84;5096812;27;45460;-63
2021/06/01 05:25:37;;;;;;;;;7.75;7.00;;;;;18.02;43.79;101130.91;5097497;27;45354;-65
2021/06/01 05:28:03;;;;;;;;;8.00;8.00;;;;;18.04;43.84;101132.56;5083877;27;45493;-64
2021/06/01 05:33:48;;;;;;;;;7.00;7.00;;;;;18.06;43.61;101128.06;5097322;27;45295;-69
2021/06/01 05:36:04;;;;;;;;;6.50;5.50;;;;;18.09;44.08;101139.44;5096839;27;45445;-65
2021/06/01 05:38:31;;;;;;;;;7.25;7.25;;;;;18.12;43.55;101134.06;5096792;27;46445;-65
2021/06/01 05:40:58;;;;;;;;;7.25;7.00;;;;;18.14;43.74;101132.22;5095885;27;45529;-65
2021/06/01 05:43:23;;;;;;;;;7.50;5.75;;;;;18.10;43.62;101115.59;5090282;27;45354;-76
2021/06/01 05:45:49;;;;;;;;;6.25;5.00;;;;;18.20;43.63;101139.88;5094909;27;45495;-74
2021/06/01 05:48:15;;;;;;;;;8.75;6.75;;;;;18.16;43.66;101125.94;5093335;27;45543;-69
2021/06/01 05:50:41;;;;;;;;;7.25;7.00;;;;;18.24;43.43;101123.84;5091738;27;45429;-74
2021/06/01 05:53:09;;;;;;;;;7.00;7.00;;;;;18.28;43.56;101128.06;5093431;27;45627;-79
2021/06/01 05:55:35;;;;;;;;;7.50;6.00;;;;;18.33;43.77;101128.78;5093929;27;45444;-72
2021/06/01 05:58:06;;;;;;;;;7.50;6.50;;;;;18.25;43.59;101104.41;5096149;27;46066;-77
2021/06/01 06:00:32;;;;;;;;;6.75;6.00;;;;;18.35;43.51;101119.00;5097421;27;45543;-77
2021/06/01 06:03:00;;;;;;;;;6.75;6.75;;;;;18.36;43.25;101111.94;5091932;27;45435;-79
2021/06/01 06:05:26;;;;;;;;;7.00;6.25;;;;;18.44;43.61;101125.69;5086012;27;45564;-75
2021/06/01 06:07:51;;;;;;;;;9.00;6.00;;;;;18.51;43.07;101123.66;5077625;27;46129;-77
2021/06/01 06:10:17;;;;;;;;;7.25;6.75;;;;;18.42;43.15;101101.09;5096901;27;45443;-76
2021/06/01 06:12:43;;;;;;;;;8.00;6.75;;;;;18.41;43.07;101099.38;5097012;27;45480;-76
2021/06/01 06:15:15;;;;;;;;;7.50;7.00;;;;;18.65;43.28;101134.56;5094611;27;45546;-76
2021/06/01 06:17:52;;;;;;;;;6.00;5.50;;;;;18.68;42.98;101129.16;5084292;27;45423;-76
2021/06/01 06:20:17;;;;;;;;;7.75;7.00;;;;;18.64;42.84;101115.19;5094973;27;45478;-76
2021/06/01 06:22:43;;;;;;;;;6.00;6.00;;;;;18.77;43.00;101122.59;5097053;27;45350;-76
2021/06/01 06:25:11;;;;;;;;;7.00;6.75;;;;;18.81;43.24;101122.44;5079987;27;45554;-77
2021/06/01 06:27:37;;;;;;;;;7.50;6.75;;;;;18.87;43.23;101119.50;5095810;27;46079;-77
2021/06/01 06:30:05;;;;;;;;;6.75;6.00;;;;;18.80;42.84;101094.25;5093636;27;45366;-76
2021/06/01 06:32:30;;;;;;;;;8.00;7.00;;;;;18.94;42.52;101117.47;5094260;27;45516;-76
2021/06/01 06:34:56;;;;;;;;;6.75;6.75;;;;;18.90;42.42;101103.50;5092113;27;45637;-76
2021/06/01 06:37:22;;;;;;;;;7.75;7.00;;;;;19.01;42.67;101118.03;5094699;27;47314;-74
2021/06/01 06:39:48;;;;;;;;;10.50;10.00;;;;;18.96;42.95;101105.88;5096321;27;45390;-75
2021/06/01 06:42:13;;;;;;;;;5.75;5.75;;;;;18.92;42.55;101090.19;5095659;27;45427;-73
2021/06/01 06:44:41;;;;;;;;;7.00;6.00;;;;;19.03;42.68;101101.19;5094942;27;45635;-72
2021/06/01 06:49:35;;;;;;;;;9.75;7.50;;;;;19.18;42.94;101097.00;5096090;27;45600;-75
2021/06/01 06:52:02;;;;;;;;;9.50;7.75;;;;;19.28;42.49;101103.63;5096883;27;45420;-76
2021/06/01 06:54:28;;;;;;;;;6.50;6.50;;;;;19.29;42.65;101094.75;5095695;27;45527;-76
2021/06/01 06:56:53;;;;;;;;;8.75;8.00;;;;;19.43;42.44;101112.66;5096460;27;45611;-76
2021/06/01 06:59:20;;;;;;;;;7.50;7.50;;;;;19.48;42.25;101102.72;5095511;27;45496;-74
2021/06/01 07:01:45;;;;;;;;;7.00;6.00;;;;;19.49;42.58;101100.00;5096944;27;45450;-69
2021/06/01 07:04:11;;;;;;;;;5.50;5.00;;;;;19.46;42.75;101081.63;5093327;27;45527;-78
2021/06/01 07:06:37;;;;;;;;;8.50;7.00;;;;;19.69;42.90;101108.84;5093713;27;47069;-76
2021/06/01 07:09:02;;;;;;;;;7.75;7.00;;;;;19.67;42.30;101090.38;5096457;27;45324;-79
2021/06/01 07:11:28;;;;;;;;;7.00;7.00;;;;;19.76;41.91;101097.06;5096583;27;45319;-79
2021/06/01 07:14:06;;;;;;;;;8.00;7.00;;;;;19.73;42.23;101078.66;5094138;27;45475;-82
2021/06/01 07:16:31;;;;;;;;;7.00;7.00;;;;;19.79;41.98;101086.31;5095874;27;46297;-79
2021/06/01 07:18:57;;;;;;;;;7.00;7.00;;;;;19.87;42.15;101084.13;5094354;27;45352;-79
2021/06/01 07:21:22;;;;;;;;;8.00;8.00;;;;;20.00;42.40;101097.69;5095166;27;45457;-74
2021/06/01 07:23:47;;;;;;;;;5.75;5.00;;;;;20.11;42.33;101095.38;5096268;27;45416;-75
2021/06/01 07:26:13;;;;;;;;;7.50;7.00;;;;;20.04;41.46;101072.75;5095570;27;45414;-76
2021/06/01 07:28:38;;;;;;;;;8.00;7.25;;;;;20.07;41.76;101065.50;5094587;27;45565;-81
2021/06/01 07:31:05;;;;;;;;;8.75;8.50;;;;;20.05;42.29;101058.56;5096014;27;45480;-81
2021/06/01 07:33:31;;;;;;;;;11.25;8.00;;;;;20.29;41.97;101078.56;5097423;27;45553;-81
2021/06/01 07:35:57;;;;;;;;;8.00;8.00;;;;;20.28;41.90;101076.00;5098771;27;45354;-81
2021/06/01 07:38:22;;;;;;;;;9.25;8.00;;;;;20.26;40.99;101060.16;5099851;27;45439;-82
2021/06/01 07:40:48;;;;;;;;;7.00;6.75;;;;;20.36;41.73;101077.31;5100326;27;45460;-82
2021/06/01 07:43:13;;;;;;;;;6.25;6.25;;;;;20.38;41.39;101064.00;5098141;27;45687;-81
2021/06/01 07:45:39;;;;;;;;;9.00;9.00;;;;;20.42;42.17;101058.50;5098631;27;46472;-81
2021/06/01 07:48:05;;;;;;;;;7.00;7.00;;;;;20.59;41.45;101070.03;5099578;27;45269;-83
2021/06/01 07:50:30;;;;;;;;;9.00;7.50;;;;;20.63;41.41;101075.13;5099306;27;45365;-81
2021/06/01 07:52:56;;;;;;;;;8.00;8.00;;;;;20.65;41.98;101069.75;5100111;27;46566;-81
2021/06/01 07:55:22;;;;;;;;;8.00;7.00;;;;;20.65;41.89;101054.69;5099381;27;45614;-82
2021/06/01 07:57:47;;;;;;;;;8.00;8.00;;;;;20.80;42.03;101063.63;5103180;27;45461;-82
2021/06/01 08:00:14;;;;;;;;;9.25;6.25;;;;;20.80;41.71;101053.03;5103255;27;45433;-82
2021/06/01 08:02:40;;;;;;;;;9.00;8.00;;;;;20.91;41.53;101069.25;5105076;27;45328;-82
2021/06/01 08:05:07;;;;;;;;;6.75;6.00;;;;;20.86;41.99;101044.75;5099500;27;45478;-82
2021/06/01 08:07:33;;;;;;;;;7.25;7.25;;;;;20.97;41.09;101058.31;5099156;27;45320;-81
2021/06/01 08:09:59;;;;;;;;;10.50;8.75;;;;;20.93;40.56;101040.84;5098754;27;45343;-81
2021/06/01 08:12:25;;;;;;;;;7.75;7.00;;;;;21.00;41.29;101042.22;5099263;27;45312;-82
2021/06/01 08:14:52;;;;;;;;;10.50;9.00;;;;;21.08;41.71;101048.00;5098610;27;45489;-83
2021/06/01 08:17:17;;;;;;;;;7.75;7.50;;;;;21.00;41.28;101028.09;5098689;27;45659;-81
2021/06/01 08:19:45;;;;;;;;;8.75;8.00;;;;;21.12;41.14;101037.22;5094640;27;46340;-80
2021/06/01 08:24:37;;;;;;;;;7.00;7.00;;;;;21.24;41.22;101042.75;5098251;27;45371;-82
2021/06/01 08:27:03;;;;;;;;;7.50;7.00;;;;;21.27;41.40;101039.91;5098482;27;45332;-81
2021/06/01 08:29:28;;;;;;;;;7.25;7.00;;;;;21.30;41.11;101026.50;5093806;27;45327;-80
2021/06/01 08:31:54;;;;;;;;;8.00;7.00;;;;;21.37;40.68;101011.94;5094056;27;45531;-79
2021/06/01 08:34:19;;;;;;;;;8.50;7.75;;;;;21.43;41.25;101000.09;5093381;27;47671;-81
2021/06/01 08:36:45;;;;;;;;;8.00;7.00;;;;;21.73;40.75;101016.16;5097787;27;45296;-83
2021/06/01 08:39:11;;;;;;;;;12.00;10.00;;;;;21.92;40.48;101030.09;5098850;27;45197;-81
2021/06/01 08:41:38;;;;;;;;;8.50;7.00;;;;;22.10;40.54;101022.91;5098614;27;45414;-82
2021/06/01 08:44:05;;;;;;;;;9.75;8.50;;;;;22.27;40.55;101016.63;5092509;27;45537;-80
2021/06/01 08:46:32;;;;;;;;;8.50;7.50;;;;;22.42;40.60;101012.22;5079529;27;45460;-81
2021/06/01 08:48:58;;;;;;;;;7.25;7.25;;;;;22.44;39.73;100981.91;5095823;27;45585;-82
2021/06/01 08:51:25;;;;;;;;;7.00;6.50;;;;;22.75;39.75;101007.50;5095086;27;45341;-82
2021/06/01 08:53:53;;;;;;;;;9.25;7.25;;;;;22.96;39.93;101021.34;5096050;27;47312;-81
2021/06/01 08:56:19;;;;;;;;;8.00;7.00;;;;;23.11;39.05;101012.44;5079572;27;45806;-82
2021/06/01 08:58:49;;;;;;;;;8.25;7.00;;;;;23.16;39.07;101004.16;5094100;27;45554;-83
2021/06/01 09:01:15;;;;;;;;;9.00;9.00;;;;;23.33;39.67;101011.94;5099881;27;45302;-83
2021/06/01 09:03:47;;;;;;;;;8.50;8.00;;;;;23.39;39.41;100990.22;5104254;27;45370;-83
2021/06/01 09:08:46;;;;;;;;;7.75;7.25;;;;;23.88;37.67;101008.41;5090306;27;45620;-84
2021/06/01 09:11:17;;;;;;;;;7.00;7.00;;;;;23.92;38.67;100993.91;5096640;27;45352;-85
2021/06/01 09:14:13;;;;;;;;;8.00;6.75;;;;;24.16;38.06;101007.44;5088818;27;46320;-83
2021/06/01 09:22:06;;;;;;;;;9.25;7.00;;;;;24.49;37.77;101004.38;5077678;27;45395;-83
2021/06/01 09:24:32;;;;;;;;;8.75;8.75;;;;;24.52;37.66;100988.13;5089658;27;45483;-85
2021/06/01 09:29:25;;;;;;;;;9.50;8.25;;;;;24.76;37.48;100990.06;5097126;27;45464;-86
2021/06/01 09:32:11;;;;;;;;;8.00;8.00;;;;;24.82;37.57;100962.94;5094711;27;45478;-85
2021/06/01 09:34:46;;;;;;;;;7.00;7.00;;;;;25.08;37.07;100969.97;5088949;27;45419;-85
2021/06/01 09:37:26;;;;;;;;;8.75;8.00;;;;;25.39;37.77;100999.88;5095087;27;45734;-85
2021/06/01 09:40:11;;;;;;;;;7.00;6.50;;;;;25.54;36.53;100969.34;5110350;27;45481;-85
2021/06/01 09:42:40;;;;;;;;;7.25;7.00;;;;;25.73;36.37;100967.03;5092581;27;45437;-85
2021/06/01 09:45:08;;;;;;;;;12.00;8.75;;;;;26.02;36.65;100975.56;5089449;27;45579;-86
2021/06/01 09:48:05;;;;;;;;;5.50;4.25;;;;;26.17;35.49;100961.03;5095955;27;45399;-85
2021/06/01 09:50:57;;;;;;;;;6.75;6.00;;;;;26.41;33.97;100969.03;5096840;27;45424;-85
2021/06/01 09:53:27;;;;;;;;;6.00;6.00;;;;;26.42;35.63;100954.69;5084359;27;45385;-85
2021/06/01 09:55:54;;;;;;;;;9.00;7.50;;;;;26.63;35.47;100962.03;5088407;27;46088;-84
2021/06/01 09:58:31;;;;;;;;;6.50;5.25;;;;;26.70;36.00;100941.81;5092466;27;46149;-84
2021/06/01 10:00:59;;;;;;;;;5.75;5.75;;;;;26.90;35.05;100959.84;5092591;27;45314;-84
2021/06/01 10:03:37;;;;;;;;;5.75;5.25;;;;;27.08;34.30;100958.44;5098633;27;45216;-84
2021/06/01 10:06:03;;;;;;;;;6.50;6.25;;;;;27.21;35.38;100946.72;5094104;27;46520;-86
2021/06/01 10:08:30;;;;;;;;;10.50;7.50;;;;;27.43;34.51;100952.06;5096548;27;45377;-86
2021/06/01 10:10:58;;;;;;;;;6.00;5.25;;;;;27.70;33.39;100963.22;5090028;27;45441;-84
2021/06/01 10:13:27;;;;;;;;;6.75;6.25;;;;;27.83;32.95;100952.31;5078125;27;45205;-83
2021/06/01 10:15:56;;;;;;;;;6.50;5.00;;;;;28.03;33.12;100943.44;5089565;27;46486;-85
2021/06/01 10:18:23;;;;;;;;;5.25;5.25;;;;;28.49;33.03;100958.38;5090784;27;45546;-83
2021/06/01 10:20:50;;;;;;;;;6.25;6.25;;;;;29.07;33.10;100929.13;5087223;27;45348;-85
2021/06/01 10:23:26;;;;;;;;;7.50;7.00;;;;;30.27;30.73;100949.53;5080934;27;45492;-86
2021/06/01 10:25:53;;;;;;;;;6.25;5.50;;;;;31.46;28.71;100929.09;5077029;28;45432;-85
2021/06/01 10:28:24;;;;;;;;;5.25;5.25;;;;;32.55;27.48;100936.00;5087244;27;45472;-84
2021/06/01 10:30:50;;;;;;;;;5.75;5.75;;;;;32.11;27.49;100917.09;5076672;27;45151;-86
2021/06/01 10:33:17;;;;;;;;;5.75;5.25;;;;;31.28;27.69;100924.56;5094934;27;45334;-86
2021/06/01 10:35:55;;;;;;;;;5.75;5.00;;;;;30.44;28.88;100913.78;5082822;27;46400;-84
2021/06/01 10:50:23;;;;;;;;;6.00;6.00;;;;;33.61;26.38;100915.69;5014935;28;45459;-84
2021/06/01 10:53:03;;;;;;;;;6.25;5.25;;;;;33.66;25.54;100931.44;5002930;28;45462;-81
2021/06/01 10:55:48;;;;;;;;;10.50;8.00;;;;;33.66;25.36;100921.44;5014860;28;45509;-83
2021/06/01 10:58:14;;;;;;;;;7.75;7.00;;;;;33.64;25.84;100900.97;5015535;28;45500;-84
2021/06/01 11:03:10;;;;;;;;;6.00;6.00;;;;;33.62;26.49;100908.41;5015666;28;45362;-84
2021/06/01 11:05:54;;;;;;;;;7.75;7.00;;;;;33.58;25.65;100901.63;5017059;28;45461;-83
2021/06/01 11:08:32;;;;;;;;;6.00;6.00;;;;;33.63;25.18;100902.81;5021731;28;45496;-82
2021/06/01 11:10:58;;;;;;;;;8.00;6.25;;;;;34.10;25.09;100907.59;5035963;28;45494;-81
2021/06/01 11:13:23;;;;;;;;;6.50;5.25;;;;;34.32;25.42;100904.19;5017388;28;45426;-83
2021/06/01 11:15:56;;;;;;;;;6.25;6.00;;;;;34.45;24.45;100905.56;5017018;28;45481;-83
2021/06/01 11:18:37;;;;;;;;;9.25;7.00;;;;;34.20;25.21;100897.44;5016888;28;45524;-83
2021/06/01 11:21:18;;;;;;;;;8.50;8.50;;;;;34.02;25.49;100899.50;5016641;28;45511;-85
2021/06/01 11:35:14;;;;;;;;;19.00;17.75;;;;;33.58;25.28;100886.25;5095819;27;45462;-83
2021/06/01 11:37:54;;;;;;;;;5.75;5.75;;;;;33.75;24.56;100882.53;5099989;27;45436;-83
2021/06/01 11:40:26;;;;;;;;;13.00;10.25;;;;;33.78;24.40;100862.38;5084937;27;46297;-85
2021/06/01 11:43:11;;;;;;;;;6.75;6.75;;;;;34.16;24.80;100874.38;5089845;27;45466;-84
2021/06/01 11:54:04;;;;;;;;;6.00;6.00;;;;;35.08;23.56;100866.66;5093252;27;45489;-81
2021/06/01 11:56:36;;;;;;;;;7.00;7.00;;;;;35.24;22.61;100861.97;5077463;27;45438;-82
2021/06/01 12:05:01;;;;;;;;;7.00;6.50;;;;;35.45;23.16;100847.78;5085498;27;45207;-83
2021/06/01 12:21:18;;;;;;;;;5.75;5.75;;;;;34.62;22.44;100833.94;5087003;27;45375;-85
2021/06/01 12:23:50;;;;;;;;;6.00;5.00;;;;;34.59;22.99;100847.88;5077922;27;46222;-84
2021/06/01 12:32:15;;;;;;;;;6.00;6.00;;;;;34.51;22.86;100840.63;5076195;27;45294;-82
2021/06/01 13:20:10;;;;;;;;;5.75;4.75;;;;;33.88;22.41;100818.88;5096894;27;45829;-83
2021/06/01 13:22:43;;;;;;;;;4.00;4.00;;;;;33.67;21.45;100806.66;5087059;27;45487;-83
2021/06/01 13:39:39;;;;;;;;;6.00;6.00;;;;;33.80;22.54;100795.31;5094596;27;45439;-83
2021/06/01 13:47:55;;;;;;;;;4.00;4.00;;;;;33.48;21.73;100777.22;5097192;27;45439;-82
2021/06/01 13:50:28;;;;;;;;;6.00;6.00;;;;;33.59;21.65;100785.00;5095642;27;45323;-82
2021/06/01 13:55:05;;;;;;;;;6.75;6.00;;;;;33.66;22.02;100785.19;5095612;27;48327;-82
2021/06/01 13:55:48;;;;;;;;;4.00;4.00;;;;;33.63;22.63;100766.56;5096569;27;45513;-83
2021/06/01 14:01:17;;;;;;;;;5.00;5.00;;;;;33.82;21.64;100771.63;5089397;27;45424;-82
2021/06/01 14:09:37;;;;;;;;;5.00;4.50;;;;;33.13;21.59;100779.22;5084127;27;45470;-83
2021/06/01 15:49:37;;;;;;;;;5.00;5.00;;;;;32.42;24.16;100711.25;5086210;27;45496;-84